Time;durP1;ratioP1;P1;durP2;ratioP2;P2;SDS_P1;SDS_P2;PMS_P1;PMS_P2;Temp;Humidity;BMP_temperature;BMP_pressure;BME280_temperature;BME280_humidity;BME280_pressure;Samples;Min_cycle;Max_cycle;Signal;HPM_P1;HPM_P2
2021/06/12 00:00:18;;;;;;;7.50;6.30;;;;;;;18.09;94.08;100578.56;2088328;28;20021;-60
2021/06/12 00:01:19;;;;;;;7.78;6.75;;;;;;;18.05;93.59;100583.16;2088453;28;20025;-60
2021/06/12 00:02:19;;;;;;;9.43;7.40;;;;;;;18.02;93.95;100583.34;2087465;28;20514;-60
2021/06/12 00:03:20;;;;;;;8.23;6.60;;;;;;;17.99;93.98;100581.72;2087657;28;20771;-60
2021/06/12 00:04:20;;;;;;;7.43;6.70;;;;;;;17.96;94.10;100579.28;2087354;28;20025;-60
2021/06/12 00:05:20;;;;;;;7.20;6.50;;;;;;;17.89;94.31;100581.34;2088084;28;20028;-60
2021/06/12 00:06:20;;;;;;;9.63;7.03;;;;;;;17.85;94.98;100579.81;2088191;28;20029;-60
2021/06/12 00:07:21;;;;;;;8.13;6.50;;;;;;;17.86;94.73;100581.50;2087719;28;20033;-60
2021/06/12 00:08:21;;;;;;;10.50;7.00;;;;;;;17.81;95.37;100580.06;2087342;28;20017;-60
2021/06/12 00:09:21;;;;;;;8.60;7.50;;;;;;;17.77;95.95;100576.75;2087686;28;20523;-60
2021/06/12 00:10:24;;;;;;;7.67;6.87;;;;;;;17.74;96.07;100575.13;2087405;28;20132;-60
2021/06/12 00:11:25;;;;;;;8.15;7.35;;;;;;;17.72;96.65;100578.78;2087845;28;20025;-60
2021/06/12 00:12:25;;;;;;;10.47;7.37;;;;;;;17.64;96.76;100573.06;2087491;28;20013;-60
2021/06/12 00:13:26;;;;;;;9.30;8.03;;;;;;;17.59;97.33;100568.03;2087918;28;20755;-60
2021/06/12 00:14:26;;;;;;;10.10;7.63;;;;;;;17.54;98.16;100567.44;2088006;28;20025;-60
2021/06/12 00:15:28;;;;;;;10.00;8.20;;;;;;;17.50;98.03;100571.16;2088233;28;20108;-60
2021/06/12 00:16:28;;;;;;;10.50;8.20;;;;;;;17.50;98.42;100564.13;2085243;28;20279;-60
2021/06/12 00:17:29;;;;;;;9.30;8.00;;;;;;;17.52;98.74;100567.53;2088280;28;20031;-60
2021/06/12 00:18:29;;;;;;;12.47;8.10;;;;;;;17.51;98.78;100567.59;2087955;28;20374;-60
2021/06/12 00:19:29;;;;;;;10.20;8.43;;;;;;;17.54;98.62;100578.00;2088402;28;20084;-60
2021/06/12 00:20:34;;;;;;;9.27;8.27;;;;;;;17.54;98.16;100572.72;2088285;28;20385;-60
2021/06/12 00:21:36;;;;;;;8.60;7.70;;;;;;;17.48;98.52;100562.53;2088194;28;20118;-61
2021/06/12 00:22:37;;;;;;;8.73;7.82;;;;;;;17.46;98.83;100567.00;2087812;28;20668;-60
2021/06/12 00:23:37;;;;;;;8.70;7.80;;;;;;;17.46;98.63;100567.84;2088522;28;20100;-60
2021/06/12 00:24:37;;;;;;;9.27;7.77;;;;;;;17.45;98.79;100573.22;2088262;28;20699;-61
2021/06/12 00:25:38;;;;;;;8.87;7.97;;;;;;;17.45;98.75;100568.78;2088420;28;20413;-61
2021/06/12 00:26:39;;;;;;;8.80;7.90;;;;;;;17.43;98.58;100560.97;2088344;28;20039;-60
2021/06/12 00:27:39;;;;;;;11.83;8.23;;;;;;;17.41;99.08;100562.81;2088567;28;20059;-60
2021/06/12 00:28:40;;;;;;;9.13;8.23;;;;;;;17.39;99.32;100571.75;2088038;28;20033;-60
2021/06/12 00:29:41;;;;;;;9.05;7.70;;;;;;;17.39;98.70;100572.59;2088579;28;20037;-61
2021/06/12 00:30:41;;;;;;;8.10;7.30;;;;;;;17.36;98.37;100564.88;2088439;28;20056;-60
2021/06/12 00:31:41;;;;;;;10.00;8.13;;;;;;;17.36;98.54;100567.50;2088127;28;20048;-60
2021/06/12 00:32:42;;;;;;;8.17;7.47;;;;;;;17.36;98.65;100574.53;2088414;28;20027;-60
2021/06/12 00:33:42;;;;;;;10.20;7.53;;;;;;;17.36;97.91;100569.28;2087887;28;20021;-60
2021/06/12 00:34:43;;;;;;;9.95;7.43;;;;;;;17.37;97.97;100571.84;2088136;28;20029;-61
2021/06/12 00:35:44;;;;;;;9.55;7.50;;;;;;;17.39;98.37;100575.22;2088156;28;20524;-60
2021/06/12 00:36:44;;;;;;;9.90;7.20;;;;;;;17.40;96.97;100574.28;2088344;28;20115;-60
2021/06/12 00:37:45;;;;;;;8.57;7.20;;;;;;;17.45;96.94;100570.56;2087162;28;20025;-60
2021/06/12 00:38:46;;;;;;;8.47;7.57;;;;;;;17.50;96.23;100563.25;2087752;28;20031;-60
2021/06/12 00:39:47;;;;;;;7.85;7.10;;;;;;;17.53;96.14;100569.25;2088012;28;20853;-60
2021/06/12 00:40:47;;;;;;;8.17;7.47;;;;;;;17.60;95.11;100569.75;2088305;28;20131;-60
2021/06/12 00:41:47;;;;;;;9.50;7.57;;;;;;;17.59;95.30;100568.03;2087903;28;20059;-60
2021/06/12 00:42:49;;;;;;;8.43;7.53;;;;;;;17.62;94.76;100565.25;2088281;28;20110;-60
2021/06/12 00:43:49;;;;;;;12.75;7.80;;;;;;;17.62;94.73;100575.78;2087872;28;20072;-60
2021/06/12 00:44:49;;;;;;;8.00;7.20;;;;;;;17.64;94.59;100568.66;2088398;28;20049;-60
2021/06/12 00:45:50;;;;;;;8.07;7.00;;;;;;;17.63;94.61;100574.03;2088130;28;20551;-60
2021/06/12 00:46:50;;;;;;;7.73;7.00;;;;;;;17.61;94.92;100567.97;2087883;28;20128;-60
2021/06/12 00:47:53;;;;;;;7.73;7.00;;;;;;;17.61;95.04;100570.63;2088297;28;20028;-60
2021/06/12 00:48:53;;;;;;;7.90;7.00;;;;;;;17.59;94.71;100575.94;2087988;28;20694;-60
2021/06/12 00:49:53;;;;;;;7.93;7.13;;;;;;;17.60;94.91;100567.09;2088206;28;20104;-60
2021/06/12 00:50:56;;;;;;;8.00;7.17;;;;;;;17.58;94.92;100564.56;2088258;28;20064;-60
2021/06/12 00:51:56;;;;;;;8.68;7.85;;;;;;;17.59;94.68;100568.03;2087940;28;20028;-60
2021/06/12 00:52:56;;;;;;;9.73;7.50;;;;;;;17.58;94.39;100569.00;2088362;28;20055;-60
2021/06/12 00:53:57;;;;;;;10.07;7.32;;;;;;;17.54;95.08;100572.72;2088112;28;20021;-60
2021/06/12 00:54:57;;;;;;;8.07;7.27;;;;;;;17.52;94.88;100569.31;2088221;28;20036;-60
2021/06/12 00:55:58;;;;;;;8.13;7.32;;;;;;;17.48;95.36;100565.16;2088036;28;20037;-60
2021/06/12 00:56:58;;;;;;;10.00;7.63;;;;;;;17.43;95.49;100560.13;2088224;28;20072;-60
2021/06/12 00:57:59;;;;;;;8.35;7.50;;;;;;;17.38;95.58;100563.00;2087880;28;20060;-60
2021/06/12 00:59:00;;;;;;;10.52;7.57;;;;;;;17.34;95.92;100569.38;2088245;28;20070;-60
2021/06/12 01:00:01;;;;;;;8.55;7.55;;;;;;;17.32;96.12;100565.94;2088220;28;20037;-60
2021/06/12 01:01:03;;;;;;;8.88;7.40;;;;;;;17.30;96.80;100569.59;2088347;28;20462;-60
2021/06/12 01:02:03;;;;;;;8.63;7.53;;;;;;;17.27;97.25;100568.81;2087949;28;20028;-60
2021/06/12 01:03:04;;;;;;;8.50;7.70;;;;;;;17.25;97.20;100570.69;2088029;28;20053;-60
2021/06/12 01:04:05;;;;;;;8.75;8.02;;;;;;;17.20;97.65;100559.56;2088226;28;20072;-60
2021/06/12 01:05:08;;;;;;;9.18;8.00;;;;;;;17.17;98.19;100559.69;2088362;28;20033;-60
2021/06/12 01:06:10;;;;;;;10.20;8.52;;;;;;;17.14;99.01;100559.00;2087941;28;20397;-60
2021/06/12 01:07:10;;;;;;;11.30;8.02;;;;;;;17.07;98.95;100564.63;2088337;28;20037;-61
2021/06/12 01:08:10;;;;;;;11.27;8.07;;;;;;;17.05;98.89;100558.56;2087383;28;20021;-60
2021/06/12 01:09:11;;;;;;;12.50;8.30;;;;;;;17.03;99.05;100559.59;2088165;28;20207;-60
2021/06/12 01:10:13;;;;;;;10.03;8.00;;;;;;;16.99;99.15;100561.53;2087697;28;20511;-60
2021/06/12 01:11:16;;;;;;;11.80;7.78;;;;;;;16.95;98.73;100555.53;2088073;28;20051;-60
2021/06/12 01:12:38;;;;;;;9.98;7.50;;;;;;;16.94;98.92;100555.63;2087425;28;20024;-60
2021/06/12 01:13:57;;;;;;;;;;;;;;;16.92;98.46;100560.09;2088786;28;20032;-60
2021/06/12 01:15:04;;;;;;;10.65;7.72;;;;;;;16.90;98.38;100556.69;2088088;28;19908;-60
2021/06/12 01:16:23;;;;;;;8.85;7.95;;;;;;;16.87;98.26;100551.59;2087969;28;20103;-60
2021/06/12 01:17:52;;;;;;;8.55;7.65;;;;;;;16.87;98.34;100552.41;2088048;28;20584;-60
2021/06/12 01:18:54;;;;;;;13.88;7.68;;;;;;;16.84;97.92;100552.59;2084908;28;20068;-60
2021/06/12 01:20:03;;;;;;;10.88;7.65;;;;;;;16.81;97.93;100553.59;2088316;28;20024;-60
2021/06/12 01:21:14;;;;;;;8.13;7.30;;;;;;;16.83;97.79;100550.03;2088186;28;20059;-60
2021/06/12 01:22:22;;;;;;;9.88;7.40;;;;;;;16.80;97.64;100551.88;2088002;28;20035;-60
2021/06/12 01:23:43;;;;;;;8.00;7.13;;;;;;;16.79;97.05;100550.19;2086377;28;20528;-60
2021/06/12 01:25:02;;;;;;;7.70;6.63;;;;;;;16.77;97.81;100551.19;2087924;28;20564;-60
2021/06/12 01:26:29;;;;;;;8.15;7.35;;;;;;;16.76;97.88;100547.72;2088023;28;20094;-60
2021/06/12 01:27:57;;;;;;;9.25;7.55;;;;;;;16.73;97.88;100549.66;2088178;28;20028;-60
2021/06/12 01:29:16;;;;;;;10.27;7.80;;;;;;;16.71;98.19;100543.59;2088596;28;20075;-60
2021/06/12 01:30:17;;;;;;;9.68;7.18;;;;;;;16.67;98.31;100540.28;2088696;28;20025;-60
2021/06/12 01:31:22;;;;;;;9.30;7.80;;;;;;;16.65;98.23;100542.13;2088322;28;20025;-60
2021/06/12 01:32:24;;;;;;;8.77;7.97;;;;;;;16.64;98.35;100548.31;2088373;28;20048;-60
2021/06/12 01:33:25;;;;;;;8.25;7.50;;;;;;;16.62;98.31;100542.28;2088384;28;20029;-60
2021/06/12 01:34:28;;;;;;;8.50;7.70;;;;;;;16.61;97.47;100546.72;2088488;28;20055;-60
2021/06/12 01:35:42;;;;;;;8.43;7.28;;;;;;;16.60;98.00;100544.16;2088009;28;20105;-60
2021/06/12 01:36:44;;;;;;;8.65;7.75;;;;;;;16.60;97.76;100554.69;2088163;28;20040;-60
2021/06/12 01:37:46;;;;;;;8.30;7.50;;;;;;;16.62;97.31;100545.78;2087998;28;20017;-60
2021/06/12 01:38:50;;;;;;;7.80;7.10;;;;;;;16.62;96.93;100537.00;2086989;28;20548;-60
2021/06/12 01:39:52;;;;;;;9.48;8.02;;;;;;;16.62;97.02;100547.53;2087353;28;20040;-60
2021/06/12 01:40:56;;;;;;;8.52;7.72;;;;;;;16.61;97.21;100544.06;2087848;28;20543;-60
2021/06/12 01:41:59;;;;;;;10.82;8.15;;;;;;;16.62;97.53;100547.53;2087827;28;20035;-60
2021/06/12 01:43:02;;;;;;;8.98;7.80;;;;;;;16.64;97.93;100550.94;2087984;28;20029;-61
2021/06/12 01:44:05;;;;;;;8.23;7.38;;;;;;;16.65;98.01;100550.88;2088053;28;20037;-60
2021/06/12 01:45:06;;;;;;;10.10;7.63;;;;;;;16.68;97.75;100551.66;2088157;28;20079;-60
2021/06/12 01:46:11;;;;;;;9.57;7.68;;;;;;;16.66;97.84;100557.00;2089211;28;20033;-60
2021/06/12 01:47:13;;;;;;;10.55;7.57;;;;;;;16.69;97.69;100556.84;2088843;28;20475;-60
2021/06/12 01:48:15;;;;;;;10.05;8.15;;;;;;;16.67;97.46;100556.06;2088799;28;20501;-61
2021/06/12 01:49:16;;;;;;;10.07;8.05;;;;;;;16.71;97.52;100559.41;2086547;28;20033;-60
2021/06/12 01:50:18;;;;;;;10.65;7.70;;;;;;;16.68;97.69;100556.91;2089620;28;20792;-60
2021/06/12 01:51:19;;;;;;;9.68;8.45;;;;;;;16.69;97.65;100550.72;2089748;28;20017;-60
2021/06/12 01:52:21;;;;;;;8.90;7.70;;;;;;;16.68;98.05;100557.78;2089419;28;20462;-60
2021/06/12 01:53:30;;;;;;;10.18;7.88;;;;;;;16.67;97.81;100556.06;2089275;28;20025;-60
2021/06/12 01:54:31;;;;;;;8.63;7.53;;;;;;;16.65;98.21;100563.19;2089663;28;20032;-60
2021/06/12 01:55:34;;;;;;;9.60;8.00;;;;;;;16.65;98.06;100557.94;2089576;28;20104;-60
2021/06/12 01:56:34;;;;;;;8.85;7.38;;;;;;;16.64;98.09;100556.22;2089539;28;20025;-60
2021/06/12 01:57:36;;;;;;;9.02;8.00;;;;;;;16.57;98.25;100555.66;2089423;28;20040;-60
2021/06/12 01:58:39;;;;;;;10.25;8.65;;;;;;;16.57;98.84;100554.81;2089572;28;20067;-60
2021/06/12 01:59:40;;;;;;;9.63;8.63;;;;;;;16.54;99.19;100557.59;2089771;28;20029;-60
2021/06/12 02:00:41;;;;;;;9.90;8.90;;;;;;;16.49;99.46;100556.06;2089266;28;20393;-61
2021/06/12 02:01:47;;;;;;;10.02;8.80;;;;;;;16.49;99.63;100557.84;2089394;28;20033;-60
2021/06/12 02:02:49;;;;;;;9.48;8.60;;;;;;;16.47;100.00;100554.41;2089284;28;20116;-60
2021/06/12 02:03:51;;;;;;;9.25;8.35;;;;;;;16.45;100.00;100556.28;2088986;28;20028;-60
2021/06/12 02:04:51;;;;;;;9.93;8.90;;;;;;;16.42;100.00;100557.28;2088816;28;20532;-60
2021/06/12 02:05:53;;;;;;;10.53;9.10;;;;;;;16.43;100.00;100556.34;2089414;28;20035;-60
2021/06/12 02:07:01;;;;;;;10.80;9.43;;;;;;;16.43;100.00;100560.78;2089395;28;20025;-60
2021/06/12 02:08:03;;;;;;;12.57;9.75;;;;;;;16.43;100.00;100561.63;2089353;28;20020;-61
2021/06/12 02:09:05;;;;;;;10.65;9.65;;;;;;;16.44;100.00;100562.47;2089037;28;20461;-60
2021/06/12 02:10:07;;;;;;;10.57;9.57;;;;;;;16.45;100.00;100557.13;2089488;28;20021;-60
2021/06/12 02:11:08;;;;;;;13.27;9.85;;;;;;;16.43;100.00;100558.97;2088653;28;20028;-60
2021/06/12 02:12:09;;;;;;;11.20;9.70;;;;;;;16.45;100.00;100559.75;2088810;28;20021;-60
2021/06/12 02:13:10;;;;;;;10.45;9.48;;;;;;;16.46;100.00;100561.47;2089348;28;20025;-60
2021/06/12 02:14:13;;;;;;;11.95;9.57;;;;;;;16.44;100.00;100557.22;2089626;28;20114;-60
2021/06/12 02:15:14;;;;;;;11.05;9.80;;;;;;;16.43;100.00;100556.34;2089350;28;20035;-60
2021/06/12 02:16:16;;;;;;;10.82;9.82;;;;;;;16.42;100.00;100557.28;2088984;28;20096;-60
2021/06/12 02:17:19;;;;;;;14.55;9.90;;;;;;;16.42;100.00;100561.69;2089393;28;20717;-60
2021/06/12 02:18:22;;;;;;;11.45;10.23;;;;;;;16.39;100.00;100553.94;2089613;28;20023;-61
2021/06/12 02:19:24;;;;;;;15.98;10.68;;;;;;;16.36;100.00;100557.59;2089357;28;20039;-60
2021/06/12 02:20:25;;;;;;;15.23;11.02;;;;;;;16.36;100.00;100560.22;2089455;28;20021;-60
2021/06/12 02:21:26;;;;;;;11.50;10.45;;;;;;;16.30;100.00;100557.91;2089351;28;20029;-60
2021/06/12 02:22:28;;;;;;;11.45;10.10;;;;;;;16.27;100.00;100560.66;2089162;28;20029;-60
2021/06/12 02:23:30;;;;;;;10.77;9.88;;;;;;;16.29;100.00;100564.09;2088247;28;20013;-61
2021/06/12 02:24:30;;;;;;;10.48;9.38;;;;;;;16.25;100.00;100567.78;2088806;28;20025;-60
2021/06/12 02:25:31;;;;;;;11.47;10.37;;;;;;;16.23;100.00;100566.97;2089295;28;20031;-60
2021/06/12 02:26:36;;;;;;;11.93;10.63;;;;;;;16.25;100.00;100563.38;2088928;28;20060;-60
2021/06/12 02:27:38;;;;;;;14.95;10.35;;;;;;;16.27;100.00;100568.56;2089271;28;20577;-60
2021/06/12 02:28:39;;;;;;;11.95;10.15;;;;;;;16.27;100.00;100565.94;2089456;28;20025;-60
2021/06/12 02:29:40;;;;;;;11.35;9.90;;;;;;;16.28;100.00;100562.38;2089317;28;20017;-60
2021/06/12 02:30:44;;;;;;;11.43;10.25;;;;;;;16.26;100.00;100565.06;2089366;28;20033;-60
2021/06/12 02:31:48;;;;;;;11.07;9.98;;;;;;;16.25;100.00;100568.63;2089045;28;20029;-60
2021/06/12 02:32:53;;;;;;;11.35;10.20;;;;;;;16.22;100.00;100570.53;2088122;28;20112;-61
2021/06/12 02:33:53;;;;;;;11.38;10.25;;;;;;;16.21;100.00;100560.97;2088453;28;20171;-60
2021/06/12 02:34:53;;;;;;;12.50;10.07;;;;;;;16.21;100.00;100566.22;2089162;28;20547;-60
2021/06/12 02:35:54;;;;;;;13.60;11.03;;;;;;;16.20;100.00;100561.91;2088783;28;20516;-60
2021/06/12 02:36:55;;;;;;;11.73;10.57;;;;;;;16.25;100.00;100565.13;2088674;28;20021;-60
2021/06/12 02:37:56;;;;;;;11.70;10.60;;;;;;;16.26;100.00;100565.06;2088934;28;20032;-60
2021/06/12 02:38:56;;;;;;;11.60;10.25;;;;;;;16.25;100.00;100559.88;2088409;28;20071;-60
2021/06/12 02:39:56;;;;;;;13.30;10.53;;;;;;;16.27;100.00;100558.03;2088019;28;20040;-60
2021/06/12 02:40:59;;;;;;;10.80;9.80;;;;;;;16.29;100.00;100561.44;2088248;28;20029;-60
2021/06/12 02:42:00;;;;;;;13.15;10.35;;;;;;;16.25;100.00;100554.63;2088729;28;20021;-60
2021/06/12 02:43:00;;;;;;;;;;;;;;;16.24;100.00;100552.91;2089291;28;20551;-60
2021/06/12 02:44:00;;;;;;;14.82;10.35;;;;;;;16.23;100.00;100551.22;2088873;28;19912;-60
2021/06/12 02:45:03;;;;;;;11.13;9.93;;;;;;;16.23;100.00;100545.94;2088946;28;20119;-60
2021/06/12 02:46:08;;;;;;;12.05;10.40;;;;;;;16.28;100.00;100559.75;2088630;28;20029;-60
2021/06/12 02:47:11;;;;;;;11.75;10.65;;;;;;;16.29;100.00;100550.94;2088828;28;20025;-60
2021/06/12 02:48:16;;;;;;;12.75;10.57;;;;;;;16.29;100.00;100558.81;2088929;28;20028;-60
2021/06/12 02:49:23;;;;;;;12.45;11.25;;;;;;;16.29;100.00;100564.91;2089118;28;20481;-61
2021/06/12 02:50:31;;;;;;;12.40;10.95;;;;;;;16.34;100.00;100562.06;2088681;28;20032;-61
2021/06/12 02:51:34;;;;;;;12.57;11.05;;;;;;;16.31;100.00;100565.69;2088121;28;20481;-60
2021/06/12 02:52:35;;;;;;;12.52;10.90;;;;;;;16.35;100.00;100555.88;2088357;28;20500;-60
2021/06/12 02:53:37;;;;;;;;;;;;;;;16.32;100.00;100562.16;2088708;28;20131;-60
2021/06/12 02:54:38;;;;;;;11.90;10.85;;;;;;;16.32;100.00;100562.16;2088864;28;19909;-60
2021/06/12 02:55:49;;;;;;;14.63;11.27;;;;;;;16.30;100.00;100563.16;2089258;28;20025;-60
2021/06/12 02:56:52;;;;;;;12.20;10.80;;;;;;;16.29;100.00;100550.94;2088212;28;20813;-60
2021/06/12 02:57:53;;;;;;;14.90;10.82;;;;;;;16.29;100.00;100556.19;2089169;28;20051;-61
2021/06/12 02:58:59;;;;;;;11.98;10.77;;;;;;;16.24;100.00;100558.19;2088571;28;20028;-60
2021/06/12 03:00:01;;;;;;;12.25;11.00;;;;;;;16.24;100.00;100552.91;2089286;28;20032;-60
2021/06/12 03:01:03;;;;;;;12.10;10.75;;;;;;;16.22;100.00;100554.75;2089030;28;20092;-61
2021/06/12 03:02:05;;;;;;;12.02;10.82;;;;;;;16.21;100.00;100553.91;2088644;28;20060;-60
2021/06/12 03:03:06;;;;;;;11.85;10.65;;;;;;;16.18;100.00;100554.06;2088806;28;20037;-60
2021/06/12 03:04:09;;;;;;;11.55;10.55;;;;;;;16.18;100.00;100554.06;2089244;28;20128;-60
2021/06/12 03:05:15;;;;;;;11.90;10.90;;;;;;;16.21;100.00;100556.56;2089025;28;20381;-60
2021/06/12 03:06:19;;;;;;;14.00;10.98;;;;;;;16.23;100.00;100559.09;2088739;28;20044;-61
2021/06/12 03:07:21;;;;;;;14.15;11.75;;;;;;;16.21;100.00;100555.72;2088922;28;20017;-60
2021/06/12 03:08:25;;;;;;;14.68;12.30;;;;;;;16.23;100.00;100552.06;2088969;28;20036;-61
2021/06/12 03:09:28;;;;;;;12.68;11.27;;;;;;;16.20;100.00;100559.25;2088726;28;20044;-61
2021/06/12 03:10:32;;;;;;;15.48;11.55;;;;;;;16.15;100.00;100557.69;2089492;28;20055;-61
2021/06/12 03:11:33;;;;;;;11.90;10.80;;;;;;;16.18;100.00;100554.94;2089035;28;20493;-61
2021/06/12 03:12:35;;;;;;;12.50;10.98;;;;;;;16.14;100.00;100563.88;2089476;28;20035;-61
2021/06/12 03:13:37;;;;;;;14.02;11.60;;;;;;;16.13;100.00;100561.34;2089249;28;20017;-60
2021/06/12 03:14:40;;;;;;;12.20;11.00;;;;;;;16.15;100.00;100565.59;2089458;28;20470;-61
2021/06/12 03:15:43;;;;;;;13.45;12.15;;;;;;;16.19;100.00;100568.91;2089043;28;20389;-61
2021/06/12 03:16:46;;;;;;;13.43;12.15;;;;;;;16.27;100.00;100569.41;2088531;28;20485;-61
2021/06/12 03:17:50;;;;;;;13.98;12.60;;;;;;;16.32;100.00;100574.44;2088900;28;20036;-61
2021/06/12 03:18:51;;;;;;;15.43;12.65;;;;;;;16.32;100.00;100572.66;2089099;28;20037;-61
2021/06/12 03:19:53;;;;;;;13.70;12.40;;;;;;;16.32;100.00;100577.06;2088216;28;20045;-60
2021/06/12 03:20:59;;;;;;;13.63;12.23;;;;;;;16.31;100.00;100578.00;2088801;28;20028;-60
2021/06/12 03:22:00;;;;;;;12.68;11.52;;;;;;;16.31;100.00;100578.00;2088577;28;20024;-60
2021/06/12 03:23:02;;;;;;;13.20;11.80;;;;;;;16.32;100.00;100577.94;2088869;28;20024;-60
2021/06/12 03:24:04;;;;;;;13.15;11.77;;;;;;;16.33;100.00;100584.91;2088627;28;20544;-60
2021/06/12 03:25:07;;;;;;;12.70;11.55;;;;;;;16.38;100.00;100581.19;2089032;28;20100;-60
2021/06/12 03:26:10;;;;;;;13.95;11.98;;;;;;;16.37;100.00;100574.22;2088643;28;20029;-60
2021/06/12 03:27:11;;;;;;;17.25;11.10;;;;;;;16.37;100.00;100572.44;2088619;28;20704;-60
2021/06/12 03:28:12;;;;;;;14.77;10.90;;;;;;;16.40;100.00;100569.69;2088894;28;20087;-59
2021/06/12 03:29:13;;;;;;;12.80;11.23;;;;;;;16.44;100.00;100562.47;2089049;28;20033;-59
2021/06/12 03:30:15;;;;;;;12.52;11.32;;;;;;;16.47;100.00;100563.19;2088182;28;20037;-59
2021/06/12 03:31:17;;;;;;;12.73;11.48;;;;;;;16.51;100.00;100565.66;2088320;28;20040;-59
2021/06/12 03:32:17;;;;;;;12.32;11.00;;;;;;;16.51;100.00;100571.78;2088558;28;20108;-60
2021/06/12 03:33:18;;;;;;;16.43;11.20;;;;;;;16.49;100.00;100573.63;2088628;28;20071;-60
2021/06/12 03:34:19;;;;;;;12.32;11.13;;;;;;;16.47;100.00;100571.06;2088850;28;20029;-60
2021/06/12 03:35:20;;;;;;;12.15;10.88;;;;;;;16.48;100.00;100570.16;2088798;28;20032;-60
2021/06/12 03:36:22;;;;;;;12.80;11.48;;;;;;;16.51;100.00;100569.13;2088515;28;20637;-60
2021/06/12 03:37:23;;;;;;;12.10;10.90;;;;;;;16.55;100.00;100572.47;2088413;28;20033;-60
2021/06/12 03:38:25;;;;;;;11.95;10.95;;;;;;;16.60;100.00;100573.94;2088528;28;20029;-60
2021/06/12 03:39:25;;;;;;;11.95;10.68;;;;;;;16.63;100.00;100578.19;2088838;28;20033;-60
2021/06/12 03:40:26;;;;;;;11.47;10.47;;;;;;;16.65;100.00;100574.56;2088541;28;20052;-60
2021/06/12 03:41:26;;;;;;;11.47;10.27;;;;;;;16.67;100.00;100579.75;2088457;28;20029;-60
2021/06/12 03:42:27;;;;;;;11.70;10.50;;;;;;;16.70;100.00;100587.50;2088436;28;20055;-60
2021/06/12 03:43:29;;;;;;;10.93;9.98;;;;;;;16.75;100.00;100580.22;2088625;28;20025;-60
2021/06/12 03:44:29;;;;;;;12.48;10.40;;;;;;;16.77;100.00;100583.63;2088668;28;20029;-60
2021/06/12 03:45:32;;;;;;;11.17;9.70;;;;;;;16.84;99.95;100584.19;2088779;28;20032;-60
2021/06/12 03:46:34;;;;;;;10.68;9.45;;;;;;;16.95;98.70;100587.13;2088557;28;20263;-60
2021/06/12 03:47:37;;;;;;;11.10;9.65;;;;;;;16.94;98.65;100581.97;2088000;28;20021;-60
2021/06/12 03:48:38;;;;;;;12.23;9.48;;;;;;;17.02;98.08;100578.94;2087939;28;20036;-60
2021/06/12 03:49:39;;;;;;;12.45;9.27;;;;;;;17.07;97.36;100580.41;2088656;28;20020;-60
2021/06/12 03:50:41;;;;;;;11.73;9.27;;;;;;;17.16;96.67;100584.34;2088303;28;20052;-60
2021/06/12 03:51:42;;;;;;;10.85;9.68;;;;;;;17.19;95.87;100586.81;2087968;28;20126;-60
2021/06/12 03:52:43;;;;;;;11.50;9.27;;;;;;;17.27;96.05;100581.16;2088531;28;20033;-60
2021/06/12 03:53:44;;;;;;;15.15;9.45;;;;;;;17.33;95.69;100588.72;2088438;28;20457;-59
2021/06/12 03:54:45;;;;;;;10.15;9.15;;;;;;;17.37;95.25;100574.47;2088569;28;20040;-60
2021/06/12 03:55:49;;;;;;;12.73;8.80;;;;;;;17.45;94.86;100581.94;2088494;28;20380;-60
2021/06/12 03:56:50;;;;;;;9.25;8.35;;;;;;;17.60;93.58;100572.38;2088529;28;20033;-59
2021/06/12 03:57:50;;;;;;;10.55;8.38;;;;;;;17.80;91.99;100573.09;2088594;28;20025;-60
2021/06/12 03:58:51;;;;;;;9.55;8.63;;;;;;;17.98;90.78;100576.53;2088399;28;20512;-60
2021/06/12 03:59:53;;;;;;;12.25;8.57;;;;;;;18.24;89.51;100574.22;2088571;28;20033;-60
2021/06/12 04:00:53;;;;;;;9.73;8.05;;;;;;;18.34;89.19;100575.41;2081584;28;20064;-60
2021/06/12 04:01:59;;;;;;;9.93;8.10;;;;;;;18.43;88.08;100579.31;2083029;28;20533;-60
2021/06/12 04:02:59;;;;;;;9.20;8.00;;;;;;;18.50;88.06;100583.28;2079206;28;20863;-60
2021/06/12 04:03:59;;;;;;;10.83;8.13;;;;;;;18.55;87.22;100580.38;2080001;28;20122;-60
2021/06/12 04:05:00;;;;;;;7.90;7.20;;;;;;;18.62;86.24;100589.66;2082135;28;20042;-60
2021/06/12 04:06:00;;;;;;;7.83;7.13;;;;;;;18.63;86.21;100586.94;2081861;28;20705;-60
2021/06/12 04:07:00;;;;;;;9.13;8.00;;;;;;;18.59;86.38;100585.41;2080410;28;20071;-60
2021/06/12 04:08:01;;;;;;;9.90;7.67;;;;;;;18.53;87.25;100588.41;2085757;28;20489;-60
2021/06/12 04:09:02;;;;;;;8.65;7.75;;;;;;;18.58;86.83;100590.78;2085142;28;20028;-60
2021/06/12 04:10:04;;;;;;;8.30;7.50;;;;;;;18.54;86.82;100595.38;2087887;28;20052;-60
2021/06/12 04:11:06;;;;;;;8.98;8.02;;;;;;;18.37;87.36;100593.69;2088378;28;20170;-60
2021/06/12 04:12:07;;;;;;;8.60;7.30;;;;;;;18.31;87.21;100594.06;2087993;28;20075;-60
2021/06/12 04:13:08;;;;;;;;;;;;;;;18.29;87.56;100598.56;2087804;28;20021;-60
2021/06/12 04:14:08;;;;;;;10.50;8.00;;;;;;;18.22;87.86;100595.41;2087244;28;19913;-60
2021/06/12 04:15:09;;;;;;;8.60;7.80;;;;;;;18.22;87.82;100595.41;2088093;28;20632;-60
2021/06/12 04:16:11;;;;;;;8.13;7.32;;;;;;;18.19;87.75;100598.22;2088193;28;20112;-60
2021/06/12 04:17:11;;;;;;;9.57;7.60;;;;;;;18.15;87.64;100605.47;2087500;28;20036;-60
2021/06/12 04:18:14;;;;;;;10.33;7.60;;;;;;;18.15;87.45;100600.19;2087673;28;20025;-60
2021/06/12 04:19:14;;;;;;;8.52;7.72;;;;;;;18.18;87.37;100601.78;2088385;28;20272;-60
2021/06/12 04:20:15;;;;;;;8.40;7.60;;;;;;;18.22;86.96;100602.50;2087835;28;20036;-60
2021/06/12 04:21:15;;;;;;;8.93;7.63;;;;;;;18.21;87.22;100599.00;2088058;28;20107;-60
2021/06/12 04:22:15;;;;;;;11.47;7.97;;;;;;;18.25;87.18;100600.53;2087407;28;20025;-60
2021/06/12 04:23:16;;;;;;;10.93;8.03;;;;;;;18.19;87.62;100601.72;2087526;28;20053;-60
2021/06/12 04:24:16;;;;;;;9.85;8.02;;;;;;;18.25;86.96;100599.66;2088189;28;20075;-60
2021/06/12 04:25:17;;;;;;;12.13;8.67;;;;;;;18.25;86.60;100611.09;2088528;28;20052;-60
2021/06/12 04:26:17;;;;;;;8.50;7.60;;;;;;;18.32;86.35;100604.53;2088254;28;20099;-60
2021/06/12 04:27:18;;;;;;;12.53;8.20;;;;;;;18.33;86.26;100608.88;2088434;28;20074;-60
2021/06/12 04:28:18;;;;;;;9.50;7.67;;;;;;;18.32;86.03;100601.88;2088351;28;20024;-59
2021/06/12 04:29:18;;;;;;;13.27;8.23;;;;;;;18.35;85.41;100607.00;2088450;28;20053;-60
2021/06/12 04:30:20;;;;;;;8.83;7.93;;;;;;;18.39;85.00;100601.53;2088242;28;20029;-60
2021/06/12 04:31:21;;;;;;;10.07;8.13;;;;;;;18.42;84.59;100611.91;2088027;28;20033;-59
2021/06/12 04:32:21;;;;;;;10.13;7.87;;;;;;;18.44;84.08;100604.75;2088111;28;20032;-60
2021/06/12 04:33:21;;;;;;;9.83;7.93;;;;;;;18.47;83.78;100604.56;2088320;28;20027;-60
2021/06/12 04:34:22;;;;;;;9.83;7.73;;;;;;;18.46;83.59;100601.09;2088234;28;20385;-59
2021/06/12 04:35:24;;;;;;;8.60;7.90;;;;;;;18.46;83.59;100598.47;2088426;28;20040;-60
2021/06/12 04:36:24;;;;;;;8.50;7.75;;;;;;;18.55;83.17;100606.78;2088270;28;20032;-60
2021/06/12 04:37:25;;;;;;;9.60;8.13;;;;;;;18.59;82.53;100603.88;2088143;28;20099;-60
2021/06/12 04:38:25;;;;;;;8.33;7.53;;;;;;;18.61;82.57;100595.88;2088444;28;20028;-60
2021/06/12 04:39:26;;;;;;;8.13;7.40;;;;;;;18.70;82.12;100602.41;2087940;28;20024;-60
2021/06/12 04:40:28;;;;;;;8.15;7.35;;;;;;;18.72;82.18;100592.63;2088388;28;20470;-60
2021/06/12 04:41:29;;;;;;;11.07;7.13;;;;;;;18.81;81.66;100600.00;2087542;28;20732;-60
2021/06/12 04:42:29;;;;;;;11.13;7.60;;;;;;;18.79;81.68;100601.88;2088007;28;20517;-60
2021/06/12 04:43:29;;;;;;;8.63;7.83;;;;;;;18.97;81.12;100603.47;2088129;28;20021;-60
2021/06/12 04:44:29;;;;;;;8.83;7.30;;;;;;;19.02;80.39;100602.34;2088270;28;20044;-60
2021/06/12 04:45:30;;;;;;;11.20;7.60;;;;;;;19.07;80.31;100597.63;2088187;28;20043;-60
2021/06/12 04:46:30;;;;;;;7.90;7.20;;;;;;;19.02;80.43;100599.72;2088289;28;20078;-60